createdAt,value
2023-06-11T00:04:47.983Z,2.60
2023-06-11T00:09:51.140Z,2.50
2023-06-11T00:19:56.879Z,2.63
2023-06-11T00:25:00.099Z,2.35
2023-06-11T00:30:21.820Z,2.42
2023-06-11T00:35:24.882Z,2.20
2023-06-11T00:40:27.848Z,2.35
2023-06-11T00:45:33.840Z,2.20
2023-06-11T00:50:46.587Z,2.00
2023-06-11T00:55:50.052Z,1.88
2023-06-11T01:00:59.181Z,2.00
2023-06-11T01:06:07.244Z,1.92
2023-06-11T01:11:15.333Z,1.80
2023-06-11T01:16:39.356Z,1.88
2023-06-11T01:21:57.544Z,1.92
2023-06-11T01:27:11.366Z,2.00
2023-06-11T01:32:15.420Z,2.00
2023-06-11T01:37:18.768Z,1.80
2023-06-11T01:42:26.282Z,2.08
2023-06-11T01:47:29.769Z,1.88
2023-06-11T01:52:33.660Z,2.03
2023-06-11T01:57:38.145Z,1.92
2023-06-11T02:02:44.722Z,1.90
2023-06-11T02:07:48.892Z,1.80
2023-06-11T02:12:51.927Z,1.88
2023-06-11T02:17:55.164Z,1.80
2023-06-11T02:23:18.093Z,1.90
2023-06-11T02:28:39.659Z,1.70
2023-06-11T02:33:43.076Z,1.80
2023-06-11T02:38:46.063Z,1.73
2023-06-11T02:43:49.028Z,1.83
2023-06-11T02:48:52.968Z,1.65
2023-06-11T02:53:56.121Z,1.65
2023-06-11T02:58:59.471Z,1.75
2023-06-11T03:04:02.601Z,1.70
2023-06-11T03:09:08.763Z,1.63
2023-06-11T03:14:12.879Z,1.75
2023-06-11T03:19:16.174Z,1.60
2023-06-11T03:24:19.750Z,1.90
2023-06-11T03:29:23.135Z,1.83
2023-06-11T03:34:31.581Z,1.63
2023-06-11T03:39:36.312Z,1.75
2023-06-11T03:44:39.883Z,1.70
2023-06-11T03:49:46.265Z,1.75
2023-06-11T03:55:08.008Z,1.75
2023-06-11T04:00:13.843Z,1.58
2023-06-11T04:05:20.459Z,1.73
2023-06-11T04:10:30.339Z,2.40
2023-06-11T04:15:51.724Z,1.70
2023-06-11T04:20:55.484Z,1.60
2023-06-11T04:26:22.431Z,1.52
2023-06-11T04:31:28.050Z,2.00
2023-06-11T04:36:33.928Z,1.90
2023-06-11T04:41:41.029Z,1.70
2023-06-11T04:46:45.060Z,1.80
2023-06-11T04:56:52.966Z,1.80
2023-06-11T05:01:56.790Z,1.60
2023-06-11T05:07:06.628Z,1.42
2023-06-11T05:12:10.498Z,1.70
2023-06-11T05:17:17.185Z,1.50
2023-06-11T05:22:23.046Z,1.45
2023-06-11T05:27:30.499Z,1.60
2023-06-11T05:32:37.983Z,1.30
2023-06-11T05:37:42.154Z,1.58
2023-06-11T05:42:46.252Z,1.50
2023-06-11T05:47:49.391Z,1.50
2023-06-11T05:52:52.542Z,1.67
2023-06-11T05:57:56.080Z,1.67
2023-06-11T06:03:00.099Z,1.48
2023-06-11T06:08:05.676Z,1.52
2023-06-11T06:13:09.584Z,1.20
2023-06-11T06:18:12.739Z,1.63
2023-06-11T06:23:18.029Z,1.60
2023-06-11T06:28:29.905Z,1.52
2023-06-11T06:33:36.976Z,1.40
2023-06-11T06:38:41.788Z,1.50
2023-06-11T06:43:45.722Z,1.10
2023-06-11T06:48:53.085Z,1.60
2023-06-11T06:53:57.096Z,1.40
2023-06-11T06:59:01.131Z,1.48
2023-06-11T07:04:04.524Z,1.73
2023-06-11T07:09:07.742Z,1.55
2023-06-11T07:14:11.386Z,1.33
2023-06-11T07:19:14.632Z,1.63
2023-06-11T07:24:18.022Z,1.35
2023-06-11T07:29:21.478Z,1.35
2023-06-11T07:34:25.345Z,1.52
2023-06-11T07:39:28.772Z,1.20
2023-06-11T07:44:31.876Z,1.35
2023-06-11T07:49:34.963Z,1.27
2023-06-11T07:54:38.123Z,1.20
2023-06-11T07:59:43.634Z,1.20
2023-06-11T08:04:47.326Z,1.30
2023-06-11T08:09:50.295Z,1.30
2023-06-11T08:14:53.289Z,1.35
2023-06-11T08:19:56.268Z,1.50
2023-06-11T08:24:59.631Z,1.50
2023-06-11T08:35:21.861Z,1.60
2023-06-11T08:40:24.992Z,1.65
2023-06-11T08:45:28.092Z,1.35
2023-06-11T08:50:34.761Z,1.33
2023-06-11T08:55:57.164Z,1.90
2023-06-11T09:01:00.018Z,1.98
2023-06-11T09:06:03.672Z,1.65
2023-06-11T09:11:07.317Z,1.45
2023-06-11T09:16:10.868Z,1.58
2023-06-11T09:21:15.034Z,1.20
2023-06-11T09:26:37.144Z,1.50
2023-06-11T09:31:41.380Z,1.60
2023-06-11T09:36:48.541Z,1.60
2023-06-11T09:41:52.084Z,1.40
2023-06-11T09:46:56.831Z,1.33
2023-06-11T09:52:01.038Z,1.80
2023-06-11T09:57:04.745Z,1.50
2023-06-11T10:02:08.991Z,1.55
2023-06-11T10:07:12.775Z,1.60
2023-06-11T10:12:17.421Z,1.30
2023-06-11T10:17:23.501Z,1.45
2023-06-11T10:22:36.979Z,1.70
2023-06-11T10:27:43.832Z,1.88
2023-06-11T10:32:51.413Z,1.75
2023-06-11T10:38:14.171Z,1.30
2023-06-11T10:43:22.292Z,1.33
2023-06-11T10:48:30.408Z,1.30
2023-06-11T10:53:42.215Z,1.40
2023-06-11T10:58:51.234Z,1.55
2023-06-11T11:03:54.932Z,1.60
2023-06-11T11:08:58.055Z,1.77
2023-06-11T11:14:02.064Z,1.33
2023-06-11T11:19:05.345Z,1.60
2023-06-11T11:24:26.827Z,1.52
2023-06-11T11:29:30.405Z,1.60
2023-06-11T11:34:33.413Z,1.45
2023-06-11T11:39:37.798Z,1.60
2023-06-11T11:44:41.463Z,1.63
2023-06-11T11:49:53.632Z,1.60
2023-06-11T11:54:58.268Z,1.45
2023-06-11T12:00:01.648Z,1.85
2023-06-11T12:05:23.054Z,2.00
2023-06-11T12:10:28.238Z,2.00
2023-06-11T12:15:31.369Z,1.83
2023-06-11T12:20:34.371Z,1.70
2023-06-11T12:25:56.232Z,1.98
2023-06-11T12:30:59.287Z,1.90
2023-06-11T12:36:20.672Z,2.10
2023-06-11T12:41:24.072Z,1.90
2023-06-11T12:46:30.496Z,1.55
2023-06-11T12:51:34.361Z,1.95
2023-06-11T12:56:37.314Z,1.80
2023-06-11T13:01:40.439Z,1.60
2023-06-11T13:06:44.635Z,1.70
2023-06-11T13:11:47.690Z,1.80
2023-06-11T13:16:52.798Z,2.00
2023-06-11T13:21:56.227Z,1.80
2023-06-11T13:26:59.536Z,1.77
2023-06-11T13:32:03.262Z,2.28
2023-06-11T13:37:06.611Z,1.77
2023-06-11T13:42:10.598Z,1.73
2023-06-11T13:47:13.862Z,1.48
2023-06-11T13:52:17.257Z,2.20
2023-06-11T13:57:20.344Z,2.25
2023-06-11T14:02:42.443Z,1.70
2023-06-11T14:07:45.741Z,1.70
2023-06-11T14:12:48.728Z,1.60
2023-06-11T14:17:51.999Z,1.50
2023-06-11T14:22:55.525Z,2.47
2023-06-11T14:27:58.578Z,2.25
2023-06-11T14:33:01.633Z,2.33
2023-06-11T14:38:23.150Z,2.40
2023-06-11T14:43:26.227Z,2.10
2023-06-11T14:48:29.317Z,2.00
2023-06-11T14:53:32.848Z,2.63
2023-06-11T14:58:54.417Z,2.70
2023-06-11T15:03:57.619Z,2.10
2023-06-11T15:09:00.928Z,1.92
2023-06-11T15:14:05.975Z,2.00
2023-06-11T15:19:09.207Z,2.30
2023-06-11T15:24:12.290Z,2.80
2023-06-11T15:29:15.640Z,2.80
2023-06-11T15:34:18.879Z,2.80
2023-06-11T15:49:27.458Z,3.47
2023-06-11T15:54:30.948Z,4.10
2023-06-11T15:59:33.983Z,4.10
2023-06-11T16:09:58.912Z,3.60
2023-06-11T16:15:02.129Z,3.38
2023-06-11T16:20:08.152Z,3.00
2023-06-11T16:25:11.855Z,2.95
2023-06-11T16:30:16.727Z,6.05
2023-06-11T16:35:20.292Z,3.30
2023-06-11T16:40:23.281Z,3.50
2023-06-11T16:50:49.842Z,2.90
2023-06-11T16:55:52.916Z,3.70
2023-06-11T17:00:56.073Z,3.42
2023-06-11T17:11:01.766Z,3.55
2023-06-11T17:16:05.162Z,3.20
2023-06-11T17:21:08.241Z,2.95
2023-06-11T17:31:14.206Z,2.40
2023-06-11T17:36:17.309Z,2.00
2023-06-11T17:41:20.428Z,1.95
2023-06-11T17:51:26.519Z,1.77
2023-06-11T17:56:29.630Z,1.90
2023-06-11T18:06:35.443Z,1.40
2023-06-11T18:16:41.299Z,1.20
2023-06-11T18:21:44.461Z,1.20
2023-06-11T18:26:47.432Z,1.20
2023-06-11T18:31:50.472Z,1.20
2023-06-11T18:41:56.594Z,1.05
2023-06-11T18:47:02.216Z,0.90
2023-06-11T18:52:07.587Z,1.10
2023-06-11T18:57:29.323Z,1.27
2023-06-11T19:02:51.171Z,1.10
2023-06-11T19:07:54.488Z,1.27
2023-06-11T19:13:17.840Z,1.20
2023-06-11T19:18:22.067Z,1.23
2023-06-11T19:23:26.592Z,1.08
2023-06-11T19:28:31.183Z,1.20
2023-06-11T19:33:34.238Z,1.00
2023-06-11T19:38:37.343Z,1.10
2023-06-11T19:43:58.860Z,1.00
2023-06-11T19:54:08.921Z,1.48
2023-06-11T20:04:36.614Z,1.00
2023-06-11T20:09:40.888Z,1.02
2023-06-11T20:15:02.836Z,1.10
2023-06-11T20:20:07.888Z,1.10
2023-06-11T20:25:11.688Z,1.13
2023-06-11T20:30:14.962Z,1.08
2023-06-11T20:35:18.352Z,1.27
2023-06-11T20:45:24.521Z,1.42
2023-06-11T21:00:33.329Z,1.73
2023-06-11T21:05:36.243Z,1.50
2023-06-11T21:10:39.188Z,1.20
2023-06-11T21:15:42.205Z,1.15
2023-06-11T21:20:45.231Z,2.03
2023-06-11T21:25:49.184Z,1.20
2023-06-11T21:30:52.202Z,1.17
2023-06-11T21:36:14.251Z,1.17
2023-06-11T21:41:17.390Z,1.60
2023-06-11T21:46:20.817Z,1.25
2023-06-11T21:51:26.777Z,1.10
2023-06-11T21:56:48.333Z,1.20
2023-06-11T22:01:51.315Z,1.10
2023-06-11T22:06:57.524Z,1.10
2023-06-11T22:12:01.109Z,1.10
2023-06-11T22:17:04.235Z,1.20
2023-06-11T22:22:12.225Z,1.10
2023-06-11T22:27:15.518Z,1.10
2023-06-11T22:32:18.670Z,1.10
2023-06-11T22:37:21.790Z,1.20
2023-06-11T22:42:24.861Z,1.30
2023-06-11T22:47:47.421Z,1.20
2023-06-11T22:52:51.039Z,1.40
2023-06-11T22:57:54.162Z,1.13
2023-06-11T23:02:57.355Z,1.17
2023-06-11T23:08:01.157Z,1.10
2023-06-11T23:13:04.367Z,1.20
2023-06-11T23:18:10.896Z,1.45
2023-06-11T23:23:17.006Z,1.38
2023-06-11T23:28:24.116Z,1.35
2023-06-11T23:33:27.285Z,1.48
2023-06-11T23:38:30.328Z,1.20
2023-06-11T23:43:33.276Z,1.35
2023-06-11T23:48:36.603Z,1.50
2023-06-11T23:53:39.620Z,1.38
2023-06-11T23:59:01.563Z,1.60
